Current Weather

Hall Beach

Hall Beach, Canada (CYUX)

Report from: Monday, February 6, 2023 12:00 AM EST
Current time: Monday, February 6, 2023 12:25 AM EST

Nearby weather
Weather history
Weather forecast

Present weatherHaze
Temperature-36.0°C (-32.8°F)
Wind chill-50.1°C (-58.2°F)
Dew point-40.0°C (-40.0°F)
Winds 10 kts (5.1 m/s, 11.5 mph) Northwest (320°)
Visibility1.8 mi. (2.8 km)
Clouds Ceiling: Overcast 400 ft. (122 m)
Altimeter29.51 in.Hg (999 mB)
Relative humidity66 %
Density altitude-6,294 ft. (-1,918 m)
Sea-level pressure100.0 kPa (1000 mB, 29.52 in.Hg)
Remarks Fully automated report
Flight conditions Low Instrument Meteorological Conditions
Raw dataCYUX 060500Z AUTO 32010KT 1 3/4SM HZ OVC004 M36/M40 A2951 RMK SLP998
An error has occurred. This application may no longer respond until reloaded. Reload 🗙